Time;durP1;ratioP1;P1;durP2;ratioP2;P2;SDS_P1;SDS_P2;PMS_P1;PMS_P2;Temp;Humidity;BMP_temperature;BMP_pressure;BME280_temperature;BME280_humidity;BME280_pressure;Samples;Min_cycle;Max_cycle;Signal;HPM_P1;HPM_P2
2022/10/13 00:02:25;;;;;;;16.33;15.27;;;15.10;45.80;;;;;;5024187;28;20216;-64
2022/10/13 00:04:51;;;;;;;15.07;13.90;;;15.10;45.90;;;;;;5024474;28;20177;-64
2022/10/13 00:07:16;;;;;;;14.57;13.57;;;15.10;45.80;;;;;;5025963;28;20603;-64
2022/10/13 00:09:42;;;;;;;16.07;14.70;;;15.10;46.00;;;;;;5027286;28;20173;-64
2022/10/13 00:12:07;;;;;;;13.93;12.90;;;15.10;46.10;;;;;;5024494;28;20177;-64
2022/10/13 00:14:33;;;;;;;15.30;14.00;;;15.10;46.10;;;;;;5025064;28;20197;-64
2022/10/13 00:16:59;;;;;;;16.53;14.80;;;15.10;45.90;;;;;;5024391;28;20552;-64
2022/10/13 00:19:24;;;;;;;18.27;16.47;;;14.80;46.20;;;;;;5023771;28;20340;-64
2022/10/13 00:21:50;;;;;;;21.43;17.53;;;14.50;48.50;;;;;;5022879;28;20252;-64
2022/10/13 00:24:15;;;;;;;21.40;19.90;;;14.20;49.80;;;;;;5023614;28;20176;-64
2022/10/13 00:26:41;;;;;;;22.80;20.77;;;13.90;51.40;;;;;;5025137;28;20538;-64
2022/10/13 00:29:07;;;;;;;22.40;20.10;;;13.90;51.90;;;;;;5022696;28;20173;-64
2022/10/13 00:31:32;;;;;;;22.13;20.43;;;13.90;52.50;;;;;;5023100;28;20212;-64
2022/10/13 00:33:59;;;;;;;23.60;21.50;;;13.80;53.10;;;;;;5024782;28;20207;-64
2022/10/13 00:36:25;;;;;;;23.57;21.67;;;13.70;54.10;;;;;;5024930;28;20641;-64
2022/10/13 00:38:51;;;;;;;23.47;21.53;;;13.60;54.50;;;;;;5023117;28;20419;-64
2022/10/13 00:41:17;;;;;;;23.47;21.60;;;13.60;54.50;;;;;;5022765;28;20628;-65
2022/10/13 00:43:47;;;;;;;23.63;21.60;;;13.70;54.70;;;;;;5024988;28;20494;-64
2022/10/13 00:46:14;;;;;;;23.93;21.93;;;13.80;54.70;;;;;;5023602;28;20415;-64
2022/10/13 00:48:42;;;;;;;24.73;22.40;;;13.80;54.70;;;;;;5022272;28;20599;-64
2022/10/13 00:51:10;;;;;;;24.70;22.37;;;13.80;54.80;;;;;;5022953;28;20467;-64
2022/10/13 00:53:38;;;;;;;22.93;21.00;;;13.90;54.90;;;;;;5026046;28;20415;-64
2022/10/13 00:56:08;;;;;;;21.73;19.93;;;14.20;54.10;;;;;;5021218;28;20786;-64
2022/10/13 00:58:36;;;;;;;23.40;21.40;;;14.30;53.30;;;;;;5025176;28;20418;-64
2022/10/13 01:01:04;;;;;;;23.17;21.03;;;14.40;52.50;;;;;;5023530;28;20513;-64
2022/10/13 01:03:30;;;;;;;20.47;18.80;;;14.60;51.60;;;;;;5024196;28;20403;-64
2022/10/13 01:05:59;;;;;;;20.40;18.70;;;14.70;50.70;;;;;;5022817;28;20562;-64
2022/10/13 01:08:26;;;;;;;19.80;15.77;;;14.70;50.60;;;;;;5022046;28;20411;-64
2022/10/13 01:10:52;;;;;;;18.30;16.40;;;14.80;50.10;;;;;;5021113;28;20910;-64
2022/10/13 01:13:17;;;;;;;17.67;16.17;;;14.90;49.70;;;;;;5023359;28;20574;-64
2022/10/13 01:16:08;;;;;;;16.17;14.80;;;14.90;49.10;;;;;;5022882;28;20180;-64
2022/10/13 01:18:33;;;;;;;23.10;16.87;;;14.90;48.80;;;;;;5021817;28;20263;-64
2022/10/13 01:21:05;;;;;;;16.87;15.33;;;15.00;48.80;;;;;;5023685;28;20553;-64
2022/10/13 01:23:40;;;;;;;18.33;16.67;;;15.00;48.50;;;;;;5022961;28;20187;-64
2022/10/13 01:26:37;;;;;;;17.20;15.73;;;15.00;48.30;;;;;;5023673;28;20415;-64
2022/10/13 01:29:32;;;;;;;17.17;15.63;;;15.00;48.30;;;;;;4970325;28;20999;-63
2022/10/13 01:32:16;;;;;;;17.23;15.50;;;14.90;48.30;;;;;;5023590;28;20923;-64
2022/10/13 01:35:01;;;;;;;18.07;16.57;;;14.90;48.10;;;;;;5021990;28;20948;-64
2022/10/13 01:37:41;;;;;;;18.93;16.90;;;14.80;48.60;;;;;;5022108;28;20553;-63
2022/10/13 01:40:25;;;;;;;19.20;17.40;;;14.60;49.10;;;;;;5021131;28;20419;-63
2022/10/13 01:43:14;;;;;;;19.50;17.40;;;14.50;50.40;;;;;;5020894;28;20431;-63
2022/10/13 01:45:48;;;;;;;19.47;17.80;;;14.40;51.00;;;;;;5021674;28;20806;-63
2022/10/13 01:48:15;;;;;;;19.80;17.80;;;14.30;51.20;;;;;;5022594;28;20416;-63
2022/10/13 01:50:42;;;;;;;19.20;16.77;;;14.30;51.50;;;;;;5022756;28;20507;-63
2022/10/13 01:53:10;;;;;;;19.57;17.87;;;14.20;51.70;;;;;;5022300;28;20939;-63
2022/10/13 01:55:36;;;;;;;23.00;20.80;;;14.10;52.40;;;;;;5019387;28;20407;-63
2022/10/13 01:58:01;;;;;;;23.60;21.57;;;14.00;53.10;;;;;;5022006;28;20441;-63
2022/10/13 02:04:11;;;;;;;24.40;22.50;;;13.90;54.90;;;;;;5021903;28;20179;-64
2022/10/13 02:07:05;;;;;;;22.97;20.97;;;13.90;54.30;;;;;;5020119;28;20465;-63
2022/10/13 02:09:40;;;;;;;25.00;22.90;;;13.90;54.80;;;;;;5019359;28;20419;-63
2022/10/13 02:12:17;;;;;;;21.80;19.80;;;13.90;54.80;;;;;;5020062;28;20421;-63
2022/10/13 02:14:45;;;;;;;23.73;21.80;;;14.10;54.80;;;;;;5020846;28;20438;-63
2022/10/13 02:17:12;;;;;;;25.63;23.23;;;14.10;53.40;;;;;;5022230;28;20950;-63
2022/10/13 02:19:38;;;;;;;24.60;22.50;;;14.10;53.20;;;;;;5021785;28;20423;-63
2022/10/13 02:22:05;;;;;;;24.53;22.33;;;14.10;52.80;;;;;;5023263;28;21034;-64
2022/10/13 02:24:32;;;;;;;24.70;21.80;;;14.20;53.00;;;;;;5020375;28;20415;-63
2022/10/13 02:26:57;;;;;;;23.30;21.50;;;14.20;52.90;;;;;;5019196;28;20451;-63
2022/10/13 02:29:23;;;;;;;25.60;23.47;;;14.10;52.80;;;;;;5021312;28;20440;-63
2022/10/13 02:31:49;;;;;;;25.27;22.50;;;14.00;53.50;;;;;;5021008;28;20275;-64
2022/10/13 02:34:15;;;;;;;24.67;22.43;;;14.00;54.00;;;;;;5021342;28;20506;-64
2022/10/13 02:36:41;;;;;;;25.90;23.57;;;13.90;54.80;;;;;;5021466;28;20598;-64
2022/10/13 02:39:08;;;;;;;22.83;20.77;;;13.80;54.70;;;;;;5021505;28;20761;-63
2022/10/13 02:41:34;;;;;;;25.20;22.97;;;13.90;54.90;;;;;;5019786;28;20459;-64
2022/10/13 02:44:00;;;;;;;23.97;22.00;;;13.90;54.90;;;;;;5020128;28;20765;-64
2022/10/13 02:46:25;;;;;;;26.37;23.73;;;14.00;54.20;;;;;;5019090;28;20700;-64
2022/10/13 02:48:51;;;;;;;24.53;22.67;;;13.90;54.00;;;;;;5020922;28;20199;-64
2022/10/13 02:51:17;;;;;;;24.80;22.50;;;13.80;54.80;;;;;;5019501;28;20176;-64
2022/10/13 02:53:43;;;;;;;24.70;22.30;;;13.80;55.80;;;;;;5022902;28;20825;-63
2022/10/13 02:56:08;;;;;;;24.77;22.40;;;13.80;54.80;;;;;;5019039;28;20226;-63
2022/10/13 02:58:34;;;;;;;23.80;21.80;;;13.80;55.20;;;;;;5019866;28;20205;-63
2022/10/13 03:01:08;;;;;;;25.20;22.80;;;13.80;54.80;;;;;;5020876;28;20470;-63
2022/10/13 03:03:34;;;;;;;25.63;23.33;;;13.90;54.90;;;;;;5022942;28;20539;-63
2022/10/13 03:06:00;;;;;;;25.83;23.70;;;14.00;54.10;;;;;;5022477;28;20441;-63
2022/10/13 03:08:26;;;;;;;24.57;22.27;;;13.90;54.50;;;;;;5021774;28;20176;-63
2022/10/13 03:10:51;;;;;;;24.70;22.60;;;13.80;54.70;;;;;;5023728;28;20496;-63
2022/10/13 03:13:17;;;;;;;26.87;24.57;;;13.80;55.50;;;;;;5020314;28;20458;-63
2022/10/13 03:15:43;;;;;;;27.20;24.80;;;13.80;55.10;;;;;;5025656;28;20179;-63
2022/10/13 03:18:08;;;;;;;27.13;24.30;;;13.90;54.80;;;;;;5028297;28;20265;-63
2022/10/13 03:20:34;;;;;;;25.73;23.13;;;14.00;54.90;;;;;;5027976;28;20176;-63
2022/10/13 03:22:59;;;;;;;25.07;22.67;;;14.10;54.30;;;;;;5028519;28;20176;-63
2022/10/13 03:25:25;;;;;;;25.37;23.00;;;14.20;53.80;;;;;;5031538;28;20179;-63
2022/10/13 03:27:51;;;;;;;24.63;22.60;;;14.30;53.50;;;;;;5029086;28;20699;-63
2022/10/13 03:30:16;;;;;;;24.13;22.30;;;14.50;53.00;;;;;;5031083;28;20218;-63
2022/10/13 03:32:42;;;;;;;25.37;22.87;;;14.60;52.30;;;;;;5031021;28;20184;-63
2022/10/13 03:35:08;;;;;;;23.10;21.00;;;14.60;51.00;;;;;;5030821;28;21082;-63
2022/10/13 03:37:34;;;;;;;21.10;19.40;;;14.70;51.00;;;;;;5033004;28;20177;-63
2022/10/13 03:39:59;;;;;;;19.70;17.80;;;14.70;50.60;;;;;;5031762;28;20176;-63
2022/10/13 03:42:25;;;;;;;19.37;17.57;;;14.80;50.30;;;;;;5032279;28;20205;-63
2022/10/13 03:44:50;;;;;;;22.20;20.10;;;14.90;49.70;;;;;;5033636;28;20191;-63
2022/10/13 03:47:16;;;;;;;17.70;16.40;;;14.90;49.40;;;;;;5032251;28;20562;-63
2022/10/13 03:49:42;;;;;;;18.77;16.77;;;15.00;49.30;;;;;;5030940;28;20169;-63
2022/10/13 03:52:07;;;;;;;22.63;18.57;;;15.00;49.20;;;;;;5015000;28;20191;-63
2022/10/13 03:54:33;;;;;;;18.70;17.20;;;15.00;48.80;;;;;;5030827;28;20545;-63
2022/10/13 03:56:58;;;;;;;18.83;17.10;;;15.00;48.00;;;;;;5033659;28;20177;-63
2022/10/13 03:59:24;;;;;;;19.03;17.23;;;14.90;48.00;;;;;;5031947;28;20187;-63
2022/10/13 04:01:50;;;;;;;18.47;16.83;;;14.80;48.60;;;;;;5032597;28;20219;-63
2022/10/13 04:04:15;;;;;;;19.57;17.87;;;14.70;48.80;;;;;;5032845;28;20199;-63
2022/10/13 04:06:41;;;;;;;20.47;18.27;;;14.60;49.30;;;;;;5032327;28;20641;-63
2022/10/13 04:09:08;;;;;;;19.00;17.40;;;14.30;50.70;;;;;;5031266;28;20168;-63
2022/10/13 04:11:34;;;;;;;22.73;20.73;;;14.30;51.20;;;;;;5032081;28;20415;-63
2022/10/13 04:13:59;;;;;;;23.13;20.63;;;14.20;51.60;;;;;;5042488;28;20438;-63
2022/10/13 04:16:28;;;;;;;23.00;21.00;;;14.10;52.00;;;;;;5052397;28;20204;-63
2022/10/13 04:19:03;;;;;;;20.77;19.13;;;14.10;52.50;;;;;;5053603;28;20219;-64
2022/10/13 04:21:32;;;;;;;23.33;21.40;;;14.00;52.90;;;;;;5052244;28;20803;-64
2022/10/13 04:23:59;;;;;;;23.73;21.30;;;14.00;53.30;;;;;;5052820;28;20418;-65
2022/10/13 04:26:27;;;;;;;23.23;21.33;;;14.00;52.80;;;;;;5052913;28;20411;-64
2022/10/13 04:28:54;;;;;;;22.17;20.33;;;14.00;52.90;;;;;;5053231;28;20823;-63
2022/10/13 04:31:21;;;;;;;24.40;22.20;;;14.00;52.80;;;;;;5052399;28;20654;-63
2022/10/13 04:33:47;;;;;;;24.33;22.13;;;14.00;53.10;;;;;;5053204;28;20514;-63
2022/10/13 04:36:14;;;;;;;22.20;20.33;;;14.00;52.80;;;;;;5053707;28;20411;-63
2022/10/13 04:38:41;;;;;;;22.87;20.67;;;14.10;52.70;;;;;;5034542;28;20434;-63
2022/10/13 04:41:07;;;;;;;23.17;21.37;;;14.00;53.10;;;;;;5030670;28;20462;-62
2022/10/13 04:43:34;;;;;;;23.20;21.60;;;13.90;53.50;;;;;;5031003;28;20445;-58
2022/10/13 04:46:12;;;;;;;23.33;21.30;;;14.00;53.50;;;;;;5029164;28;20427;-58
2022/10/13 04:48:38;;;;;;;23.40;21.83;;;14.00;53.30;;;;;;5025566;28;20408;-58
2022/10/13 04:51:07;;;;;;;22.90;20.67;;;13.90;53.30;;;;;;5043955;28;20415;-58
2022/10/13 04:53:33;;;;;;;22.63;20.73;;;13.90;53.60;;;;;;5050182;28;20194;-58
2022/10/13 04:56:01;;;;;;;22.50;20.80;;;14.00;54.00;;;;;;5044215;28;20931;-58
2022/10/13 04:58:27;;;;;;;22.33;20.37;;;14.00;52.80;;;;;;5047184;28;20427;-59
2022/10/13 05:00:53;;;;;;;22.27;20.63;;;14.00;52.90;;;;;;5050692;28;20426;-58
2022/10/13 05:03:18;;;;;;;23.37;21.37;;;14.00;52.70;;;;;;5049260;28;20791;-58
2022/10/13 05:05:44;;;;;;;23.37;21.43;;;14.00;52.50;;;;;;5050511;28;20414;-58
2022/10/13 05:08:10;;;;;;;25.63;23.33;;;14.00;52.80;;;;;;5051351;28;20703;-58
2022/10/13 05:10:35;;;;;;;23.40;21.10;;;14.00;52.60;;;;;;5050715;28;20178;-59
2022/10/13 05:13:01;;;;;;;24.63;21.97;;;14.00;52.30;;;;;;5032950;28;20193;-59
2022/10/13 05:15:27;;;;;;;23.43;21.77;;;14.10;52.30;;;;;;5046131;28;20534;-59
2022/10/13 05:17:52;;;;;;;23.63;21.73;;;14.20;51.50;;;;;;5047896;28;20195;-59
2022/10/13 05:20:18;;;;;;;20.27;18.60;;;14.20;51.00;;;;;;5044746;28;20205;-63
2022/10/13 05:22:44;;;;;;;22.67;20.77;;;14.30;51.20;;;;;;5045262;28;20613;-64
2022/10/13 05:25:09;;;;;;;24.30;22.20;;;14.30;50.10;;;;;;5044827;28;20187;-63
2022/10/13 05:27:35;;;;;;;22.37;20.50;;;14.30;50.30;;;;;;5045640;28;20169;-64
2022/10/13 05:30:01;;;;;;;24.27;21.97;;;14.40;50.00;;;;;;5057095;28;20250;-64
2022/10/13 05:32:26;;;;;;;23.50;21.43;;;14.30;50.00;;;;;;5047760;28;20679;-63
2022/10/13 05:34:52;;;;;;;19.70;18.00;;;14.30;50.30;;;;;;5048336;28;20644;-65
2022/10/13 05:37:17;;;;;;;23.17;21.27;;;14.20;50.20;;;;;;5048840;28;20233;-65
2022/10/13 05:39:43;;;;;;;23.77;21.77;;;14.10;50.50;;;;;;5047898;28;20228;-64
2022/10/13 05:42:09;;;;;;;22.67;20.60;;;14.10;50.50;;;;;;5049284;28;20239;-65
2022/10/13 05:44:36;;;;;;;24.70;22.53;;;14.10;50.80;;;;;;5048681;28;20441;-64
2022/10/13 05:47:02;;;;;;;22.73;21.00;;;14.20;50.90;;;;;;5048109;28;20411;-65
2022/10/13 05:49:28;;;;;;;23.07;20.83;;;14.10;50.80;;;;;;5048119;28;20451;-64
2022/10/13 05:52:02;;;;;;;22.43;20.53;;;14.10;50.70;;;;;;5048132;28;20422;-65
2022/10/13 05:54:59;;;;;;;18.10;16.30;;;14.20;50.60;;;;;;5045623;28;20179;-65
2022/10/13 05:57:33;;;;;;;18.17;16.43;;;14.40;50.60;;;;;;5032476;28;20417;-65
2022/10/13 06:00:10;;;;;;;22.40;20.60;;;14.50;49.50;;;;;;5044826;28;20928;-60
2022/10/13 06:02:44;;;;;;;21.77;20.17;;;14.60;49.10;;;;;;5046600;28;20524;-60
2022/10/13 06:05:18;;;;;;;19.17;17.63;;;14.50;48.80;;;;;;5049543;28;20403;-60
2022/10/13 06:07:46;;;;;;;18.87;17.27;;;14.40;49.50;;;;;;5044832;28;20409;-60
2022/10/13 06:10:13;;;;;;;20.20;18.30;;;14.40;49.20;;;;;;5048281;28;20419;-60
2022/10/13 06:12:38;;;;;;;19.60;18.00;;;14.40;49.10;;;;;;5046029;28;20427;-60
2022/10/13 06:15:04;;;;;;;20.50;18.70;;;14.50;49.40;;;;;;5048045;28;20434;-60
2022/10/13 06:17:30;;;;;;;18.63;17.00;;;14.60;49.60;;;;;;5047935;28;20552;-60
2022/10/13 06:19:56;;;;;;;19.50;17.63;;;14.70;48.50;;;;;;5045225;28;20418;-59
2022/10/13 06:22:21;;;;;;;23.10;17.97;;;14.70;48.00;;;;;;5046197;28;20596;-59
2022/10/13 06:24:47;;;;;;;19.90;18.00;;;14.60;48.00;;;;;;5045838;28;20548;-59
2022/10/13 06:27:13;;;;;;;20.70;18.80;;;14.50;48.90;;;;;;5046997;28;20221;-59
2022/10/13 06:29:39;;;;;;;20.20;18.10;;;14.50;49.10;;;;;;5045419;28;20176;-58
2022/10/13 06:32:04;;;;;;;19.70;17.80;;;14.50;49.40;;;;;;5043941;28;20516;-60
2022/10/13 06:34:31;;;;;;;20.90;19.17;;;14.60;49.20;;;;;;5045253;28;20184;-60
2022/10/13 06:36:57;;;;;;;20.93;18.80;;;14.70;48.50;;;;;;5044234;28;20191;-60
2022/10/13 06:39:22;;;;;;;25.27;21.80;;;14.50;48.70;;;;;;5045617;28;20804;-59
2022/10/13 06:41:49;;;;;;;23.07;20.97;;;14.30;50.00;;;;;;5042558;28;20623;-59
2022/10/13 06:44:14;;;;;;;24.37;22.07;;;14.20;49.90;;;;;;5044682;28;20619;-59
2022/10/13 06:46:40;;;;;;;26.37;24.17;;;14.20;50.60;;;;;;5046224;28;20423;-58
2022/10/13 06:49:09;;;;;;;25.70;23.07;;;14.20;50.90;;;;;;5045602;28;20187;-59
2022/10/13 06:51:34;;;;;;;24.63;22.43;;;14.20;50.40;;;;;;5047263;28;20199;-59
2022/10/13 06:54:00;;;;;;;23.33;21.23;;;14.30;50.30;;;;;;5049042;28;20457;-59
2022/10/13 06:56:25;;;;;;;20.07;18.53;;;14.40;50.30;;;;;;5049403;28;20566;-59
2022/10/13 06:58:51;;;;;;;18.80;17.30;;;14.50;49.70;;;;;;5050132;28;20176;-59
2022/10/13 07:01:17;;;;;;;17.70;16.13;;;14.70;49.40;;;;;;5048836;28;20226;-59
2022/10/13 07:03:43;;;;;;;18.57;16.80;;;14.70;48.40;;;;;;5049949;28;20172;-59
2022/10/13 07:06:09;;;;;;;19.63;18.03;;;14.70;47.40;;;;;;5048375;28;20266;-59
2022/10/13 07:08:35;;;;;;;21.13;19.43;;;14.70;48.00;;;;;;5048377;28;20180;-59
2022/10/13 07:11:09;;;;;;;23.17;20.97;;;14.60;48.30;;;;;;5047560;28;20464;-59
2022/10/13 07:13:34;;;;;;;19.23;17.67;;;14.60;48.20;;;;;;5047704;28;20199;-59
2022/10/13 07:16:04;;;;;;;22.70;20.40;;;14.60;48.10;;;;;;5047046;28;20422;-59
2022/10/13 07:18:30;;;;;;;20.73;19.13;;;14.70;48.10;;;;;;5048851;28;20187;-59
2022/10/13 07:20:57;;;;;;;19.30;17.90;;;14.70;47.70;;;;;;5044803;28;20422;-59
2022/10/13 07:23:23;;;;;;;18.30;16.40;;;14.50;48.20;;;;;;5048414;28;20751;-58
2022/10/13 07:25:49;;;;;;;23.50;18.50;;;14.30;49.10;;;;;;5047622;28;20411;-59
2022/10/13 07:28:14;;;;;;;22.10;20.40;;;14.30;49.40;;;;;;5047770;28;20176;-59
2022/10/13 07:30:40;;;;;;;24.13;21.83;;;14.20;49.30;;;;;;5048517;28;20184;-59
2022/10/13 07:33:06;;;;;;;21.97;20.17;;;14.20;49.70;;;;;;5048851;28;20229;-59
2022/10/13 07:35:31;;;;;;;23.87;21.43;;;14.20;50.00;;;;;;5047925;28;20295;-58
2022/10/13 07:37:57;;;;;;;21.77;20.07;;;14.30;49.90;;;;;;5047469;28;20183;-59
2022/10/13 07:40:23;;;;;;;22.00;20.30;;;14.30;49.40;;;;;;5044642;28;20172;-65
2022/10/13 07:42:49;;;;;;;21.47;19.67;;;14.20;49.80;;;;;;5046917;28;20210;-64
2022/10/13 07:45:14;;;;;;;20.77;19.07;;;14.10;49.60;;;;;;5047543;28;20417;-65
2022/10/13 07:47:40;;;;;;;20.40;18.37;;;14.10;50.50;;;;;;5048602;28;20641;-65
2022/10/13 07:50:06;;;;;;;22.70;20.93;;;14.20;50.10;;;;;;5046245;28;20234;-64
2022/10/13 07:52:34;;;;;;;22.30;20.47;;;14.30;49.60;;;;;;5048789;28;20389;-65
2022/10/13 07:55:00;;;;;;;20.97;19.53;;;14.30;50.40;;;;;;5047356;28;20511;-65
2022/10/13 07:57:26;;;;;;;21.43;19.50;;;14.40;49.60;;;;;;5045871;28;20422;-64
2022/10/13 07:59:52;;;;;;;20.97;19.30;;;14.50;48.80;;;;;;5045968;28;20179;-65
2022/10/13 08:02:18;;;;;;;20.97;19.00;;;14.50;48.90;;;;;;5045132;28;21002;-65
2022/10/13 08:04:44;;;;;;;21.47;19.67;;;14.50;48.80;;;;;;5045810;28;20406;-65
2022/10/13 08:07:10;;;;;;;21.77;19.97;;;14.50;48.80;;;;;;5046285;28;20174;-65
2022/10/13 08:09:36;;;;;;;20.97;19.37;;;14.50;48.70;;;;;;5047660;28;20590;-65
2022/10/13 08:12:02;;;;;;;20.53;18.83;;;14.60;48.40;;;;;;5044434;28;20457;-65
2022/10/13 08:14:29;;;;;;;19.70;17.97;;;14.70;48.60;;;;;;5045574;28;20450;-65
2022/10/13 08:16:56;;;;;;;19.23;17.63;;;14.80;47.70;;;;;;5044740;28;20434;-65
2022/10/13 08:19:25;;;;;;;16.20;14.80;;;14.70;47.40;;;;;;5046415;28;20850;-65
2022/10/13 08:21:51;;;;;;;19.43;17.77;;;14.80;47.10;;;;;;5046267;28;20477;-65
2022/10/13 08:24:18;;;;;;;17.93;16.43;;;14.70;47.40;;;;;;5045037;28;20410;-65
2022/10/13 08:26:45;;;;;;;18.17;16.50;;;14.70;47.40;;;;;;5029159;28;20420;-64
2022/10/13 08:29:12;;;;;;;17.07;15.63;;;14.70;47.80;;;;;;5024981;28;20423;-65
2022/10/13 08:31:38;;;;;;;17.47;16.03;;;14.80;47.40;;;;;;5025938;28;20975;-64
2022/10/13 08:34:03;;;;;;;20.27;18.57;;;14.70;47.30;;;;;;5027437;28;20510;-65
2022/10/13 08:36:29;;;;;;;18.90;17.40;;;14.70;48.20;;;;;;5026097;28;20534;-65
2022/10/13 08:38:55;;;;;;;17.37;15.93;;;14.70;48.00;;;;;;5026261;28;20191;-65
2022/10/13 08:41:27;;;;;;;19.30;17.50;;;14.70;47.40;;;;;;5025905;28;20699;-64
2022/10/13 08:44:02;;;;;;;19.87;18.40;;;14.80;47.30;;;;;;5027144;28;20188;-65
2022/10/13 08:46:51;;;;;;;16.60;14.97;;;14.90;47.00;;;;;;5025707;28;20951;-60
2022/10/13 08:49:17;;;;;;;18.40;16.87;;;14.90;46.70;;;;;;5025188;28;20759;-60
2022/10/13 08:51:43;;;;;;;17.80;16.60;;;15.00;46.40;;;;;;5027378;28;20472;-60
2022/10/13 08:54:13;;;;;;;18.30;16.90;;;15.10;46.10;;;;;;5026857;28;20424;-60
2022/10/13 08:56:39;;;;;;;15.97;14.90;;;15.10;46.00;;;;;;5025394;28;20183;-62
2022/10/13 08:59:05;;;;;;;15.80;14.60;;;15.20;45.40;;;;;;5030354;28;20435;-60
2022/10/13 09:01:35;;;;;;;20.37;18.67;;;15.20;45.00;;;;;;5043035;28;20682;-60
2022/10/13 09:04:07;;;;;;;19.40;17.70;;;15.10;45.40;;;;;;5043726;28;20412;-60
2022/10/13 09:06:38;;;;;;;17.70;16.47;;;15.10;45.30;;;;;;5025584;28;20943;-60
2022/10/13 09:09:10;;;;;;;16.33;15.13;;;15.20;45.50;;;;;;5044199;28;20418;-58
2022/10/13 09:11:44;;;;;;;18.43;16.80;;;15.30;45.20;;;;;;5044925;28;20790;-57
2022/10/13 09:14:31;;;;;;;16.33;15.03;;;15.30;44.70;;;;;;5044093;28;20439;-57
2022/10/13 09:17:12;;;;;;;16.13;14.80;;;15.30;44.40;;;;;;5041865;28;20408;-57
2022/10/13 09:19:39;;;;;;;15.20;14.10;;;15.40;44.60;;;;;;5022537;28;20763;-60
2022/10/13 09:22:30;;;;;;;16.87;15.07;;;15.40;44.30;;;;;;5026420;28;20833;-60
2022/10/13 09:25:20;;;;;;;18.03;16.40;;;15.50;44.20;;;;;;5025152;28;20407;-60
2022/10/13 09:27:56;;;;;;;16.00;14.80;;;15.50;44.00;;;;;;5017677;28;20412;-60
2022/10/13 09:30:39;;;;;;;16.60;15.20;;;15.40;44.20;;;;;;5025539;28;20816;-59
2022/10/13 09:33:07;;;;;;;14.40;13.20;;;15.50;44.30;;;;;;5026536;28;20488;-60
2022/10/13 09:35:35;;;;;;;14.77;13.57;;;15.50;44.20;;;;;;5026479;28;20450;-59
2022/10/13 09:38:05;;;;;;;15.00;13.83;;;15.60;44.10;;;;;;5024840;28;20522;-59
2022/10/13 09:40:32;;;;;;;13.87;12.93;;;15.60;43.90;;;;;;5026481;28;20418;-59
2022/10/13 09:43:00;;;;;;;14.50;13.50;;;15.70;43.70;;;;;;5027733;28;20839;-59
2022/10/13 09:45:26;;;;;;;15.30;13.57;;;15.80;44.10;;;;;;5027463;28;20476;-59
2022/10/13 09:48:03;;;;;;;15.43;14.27;;;15.90;43.90;;;;;;5025634;28;20446;-59
2022/10/13 09:50:30;;;;;;;14.80;13.70;;;15.90;43.00;;;;;;5025300;28;20415;-59
2022/10/13 09:53:25;;;;;;;16.00;14.57;;;16.00;43.10;;;;;;5026078;28;20420;-59
2022/10/13 09:56:07;;;;;;;15.50;14.10;;;16.00;43.00;;;;;;5027506;28;20416;-59
2022/10/13 09:58:36;;;;;;;14.33;13.50;;;16.00;42.70;;;;;;5024787;28;20511;-60
2022/10/13 10:01:03;;;;;;;14.43;13.53;;;16.10;42.70;;;;;;5026021;28;20474;-59
2022/10/13 10:03:37;;;;;;;14.80;13.90;;;16.00;42.40;;;;;;5025235;28;20422;-59
2022/10/13 10:06:06;;;;;;;14.90;13.57;;;16.00;42.80;;;;;;5024222;28;20427;-60
2022/10/13 10:08:51;;;;;;;14.50;13.20;;;16.00;42.80;;;;;;5026210;28;20418;-59
2022/10/13 10:11:21;;;;;;;14.50;13.47;;;16.00;42.80;;;;;;5026178;28;20970;-60
2022/10/13 10:13:47;;;;;;;14.67;13.67;;;16.00;42.80;;;;;;5029340;28;20479;-59
2022/10/13 10:16:48;;;;;;;14.23;13.23;;;16.00;42.70;;;;;;5028736;28;20451;-59
2022/10/13 10:19:36;;;;;;;15.70;14.20;;;16.10;42.90;;;;;;5025318;28;20212;-59
2022/10/13 10:22:20;;;;;;;14.80;13.80;;;16.20;42.80;;;;;;5028069;28;20455;-59
2022/10/13 10:25:16;;;;;;;15.10;14.20;;;16.20;42.50;;;;;;5026468;28;20731;-61
2022/10/13 10:28:10;;;;;;;15.03;13.73;;;16.20;42.00;;;;;;5025114;28;20502;-60
2022/10/13 10:30:58;;;;;;;14.27;13.47;;;16.20;42.10;;;;;;5025959;28;20465;-60
2022/10/13 10:34:05;;;;;;;14.60;13.33;;;16.20;42.10;;;;;;5005766;28;20422;-60
2022/10/13 10:36:44;;;;;;;17.40;14.13;;;16.20;42.00;;;;;;5025847;28;20411;-60
2022/10/13 10:39:24;;;;;;;14.77;13.67;;;16.20;42.10;;;;;;5026751;28;20411;-60
2022/10/13 10:42:00;;;;;;;14.93;13.97;;;16.20;41.90;;;;;;5025988;28;20455;-60
2022/10/13 10:44:35;;;;;;;15.10;14.00;;;16.20;42.10;;;;;;5025057;28;20438;-60
2022/10/13 10:47:10;;;;;;;15.23;14.23;;;16.30;42.10;;;;;;5027442;28;20429;-58
2022/10/13 10:49:39;;;;;;;17.53;14.00;;;16.30;42.00;;;;;;5025615;28;20456;-59
2022/10/13 10:52:08;;;;;;;14.80;13.90;;;16.40;41.90;;;;;;5027427;28;20514;-59
2022/10/13 10:55:05;;;;;;;14.90;13.87;;;16.40;41.40;;;;;;5023954;28;20451;-59
2022/10/13 10:57:34;;;;;;;14.47;13.27;;;16.40;41.30;;;;;;5025706;28;20458;-59
2022/10/13 11:00:04;;;;;;;15.30;14.30;;;16.40;41.00;;;;;;5024699;28;20438;-58
2022/10/13 11:02:57;;;;;;;13.97;13.07;;;16.50;40.70;;;;;;5024969;28;20473;-59
2022/10/13 11:05:23;;;;;;;15.20;14.10;;;16.40;40.60;;;;;;5025699;28;20454;-58
2022/10/13 11:07:51;;;;;;;14.70;13.70;;;16.40;40.70;;;;;;5023277;28;20443;-59
2022/10/13 11:10:20;;;;;;;14.23;13.37;;;16.50;40.40;;;;;;5025993;28;20275;-58
2022/10/13 11:12:51;;;;;;;14.43;13.37;;;16.50;40.70;;;;;;5026591;28;20458;-58
2022/10/13 11:15:32;;;;;;;13.80;12.90;;;16.40;40.50;;;;;;5023712;28;20477;-58
2022/10/13 11:17:58;;;;;;;14.73;13.67;;;16.50;40.60;;;;;;5024234;28;20846;-58
2022/10/13 11:20:43;;;;;;;14.53;13.50;;;16.40;40.60;;;;;;5026884;28;20426;-58
2022/10/13 11:23:12;;;;;;;14.80;13.50;;;16.50;40.70;;;;;;5017924;28;20220;-58
2022/10/13 11:25:39;;;;;;;14.67;13.43;;;16.50;40.60;;;;;;5025082;28;20419;-59
2022/10/13 11:28:20;;;;;;;14.40;13.33;;;16.50;40.60;;;;;;5025714;28;20541;-58
2022/10/13 11:30:54;;;;;;;13.80;12.70;;;16.60;40.70;;;;;;5025002;28;20404;-59
2022/10/13 11:33:51;;;;;;;14.43;13.53;;;16.70;40.50;;;;;;5026833;28;20498;-59
2022/10/13 11:36:40;;;;;;;13.03;12.07;;;16.70;41.30;;;;;;5025426;28;20412;-58
2022/10/13 11:39:26;;;;;;;13.70;12.90;;;16.80;40.60;;;;;;5029749;28;20959;-58
2022/10/13 11:42:10;;;;;;;14.50;13.50;;;16.80;39.90;;;;;;5030082;28;20800;-59
2022/10/13 11:44:48;;;;;;;13.97;13.20;;;16.70;38.90;;;;;;5030469;28;20407;-58
2022/10/13 11:47:39;;;;;;;13.60;12.30;;;16.70;39.30;;;;;;5029120;28;20442;-58
2022/10/13 11:50:28;;;;;;;13.67;12.77;;;16.80;39.20;;;;;;5028405;28;20558;-58
2022/10/13 11:52:56;;;;;;;13.20;12.40;;;16.80;39.20;;;;;;5029194;28;20423;-59
2022/10/13 11:55:45;;;;;;;14.40;13.50;;;16.80;39.20;;;;;;5028019;28;20408;-58
2022/10/13 11:58:14;;;;;;;16.40;12.20;;;16.90;39.30;;;;;;5030478;28;20506;-58
2022/10/13 12:00:50;;;;;;;13.40;12.70;;;16.90;39.20;;;;;;5038009;28;20438;-59
2022/10/13 12:03:41;;;;;;;14.40;13.10;;;16.90;38.80;;;;;;5027639;28;20434;-58
2022/10/13 12:06:19;;;;;;;13.97;13.07;;;17.00;38.70;;;;;;5034080;28;20817;-58
2022/10/13 12:08:47;;;;;;;13.63;12.80;;;17.00;38.50;;;;;;5029674;28;20507;-58
2022/10/13 12:11:28;;;;;;;15.17;13.83;;;17.10;38.40;;;;;;5037103;28;20412;-58
2022/10/13 12:13:55;;;;;;;17.17;15.73;;;17.10;38.10;;;;;;5028932;28;20435;-58
2022/10/13 12:16:21;;;;;;;13.87;12.83;;;17.10;37.80;;;;;;5028506;28;20416;-58
2022/10/13 12:18:47;;;;;;;13.10;12.43;;;17.20;37.80;;;;;;5026705;28;20510;-58
2022/10/13 12:21:21;;;;;;;13.63;12.63;;;17.20;37.90;;;;;;5027972;28;20534;-58
2022/10/13 12:23:49;;;;;;;13.43;12.60;;;17.20;37.50;;;;;;5027919;28;20176;-58
2022/10/13 12:26:20;;;;;;;13.27;12.23;;;17.20;36.80;;;;;;5028167;28;20407;-58
2022/10/13 12:28:53;;;;;;;13.23;12.60;;;17.20;37.00;;;;;;5030847;28;20935;-58
2022/10/13 12:31:20;;;;;;;14.30;13.20;;;17.30;36.70;;;;;;5027476;28;20426;-58
2022/10/13 12:33:54;;;;;;;12.73;11.90;;;17.30;36.10;;;;;;5030703;28;20908;-58
2022/10/13 12:36:25;;;;;;;12.33;11.73;;;17.30;36.30;;;;;;5028407;28;20418;-58
2022/10/13 12:38:55;;;;;;;11.60;10.90;;;17.30;35.60;;;;;;5031086;28;20415;-58
2022/10/13 12:41:30;;;;;;;13.50;12.50;;;17.30;35.10;;;;;;5029979;28;20446;-58
2022/10/13 12:43:56;;;;;;;13.30;12.30;;;17.40;35.20;;;;;;5031849;28;20415;-58
2022/10/13 12:47:02;;;;;;;13.57;12.70;;;17.40;34.60;;;;;;5029794;28;20990;-58
2022/10/13 12:49:35;;;;;;;12.33;11.60;;;17.50;34.40;;;;;;5029358;28;20207;-58